Tropical Cyclones
[Index]
Main Index Home Page Stock Weather Photos Extreme Storms Discussion Storm News and Storm Chasing Reports Tropical Cyclones / Hurricanes / Typhoons Weather Data and Links Wild Fires / Bushfires Weather Observation Techniques Weather Picture Catalogue Tornado Pictures and Reports Stock Video Footage and DVDs for sale
Season 1956-1957 Tropical Cyclone 195705 Track Map
Season 1956-1957 Summaries: [BoM-AU] [JTWC-AU] [JTWC-SIO] [JTWC-SPAC] [JTWC-SH]
<<- Previous TC | JTWC 1956-1957 Season | Next TC ->>

click for intensity scale information  Lat/long Grid: Show Hide

 Date Labels: Show Hide

Joint Typhoon Warning Centre Cyclone Data

Name: 195705
Number: 282 / 5705

11 Nov 1956 06:00 UTC to 18 Nov 1956 12:00 UTC

    date/time    lat    long     hPa   cat  kts
1956-11-11 06   12.1   156.5                  15          
1956-11-11 12   12.4   156.7                  15          
1956-11-11 18   12.8   157.1                  15          
1956-11-12 00   13.2   157.6                  15          
1956-11-12 06   13.5   158.1                  15          
1956-11-12 12   13.4   158.6                  15          
1956-11-12 18   13.3   159.1                  15          
1956-11-13 00   13.0   159.6                  15          
1956-11-13 06   13.1   160.1                  15          
1956-11-13 12   13.9   161.2                  15          
1956-11-13 18   14.8   162.5                  15          
1956-11-14 00   15.8   163.6                  20          
1956-11-14 06   16.6   164.7                  20          
1956-11-14 12   17.3   166.3                  35          
1956-11-14 18   18.0   167.8            1     45          
1956-11-15 00   18.8   169.1                  30          
1956-11-15 06   19.7   170.2                  20          
1956-11-15 12   21.3   170.9                  25          
1956-11-15 18   22.9   172.0                  30          
1956-11-16 00   24.0   173.6                  30          
1956-11-16 06   25.3   175.3                  30          
1956-11-16 12   27.4   176.8                  30          
1956-11-16 18   29.2   178.2                  30          
1956-11-17 00   30.2   177.7                  35          
1956-11-17 06   31.1   177.7            1     40          
1956-11-17 12   32.0   178.8                  35          
1956-11-17 18   32.5   179.8W                 30          
1956-11-18 00   32.3   178.3W                 30          
1956-11-18 06   32.0   176.8W                 30          
1956-11-18 12   32.0   175.3W                 20          
Winds are 1-min average.

Tropical cyclone tracks developed by Michael Bath using data from the Joint Typhoon Warning Centre Best Tracks and Google Maps.


[Australian Severe Weather index] [Copyright Notice] [Email Contacts] [Search This Site] [Privacy Policy]
Document: tropical_cyclone_195705.htm Updated: 18 September 2016